Time;durP1;ratioP1;P1;durP2;ratioP2;P2;SDS_P1;SDS_P2;PMS_P1;PMS_P2;Temp;Humidity;BMP_temperature;BMP_pressure;BME280_temperature;BME280_humidity;BME280_pressure;Samples;Min_cycle;Max_cycle;Signal;HPM_P1;HPM_P2
2023/05/15 00:01:40;;;;;;;0.90;0.90;;;20.10;70.40;;;;;;5083728;27;43442;-70
2023/05/15 00:04:08;;;;;;;1.00;1.00;;;20.10;70.20;;;;;;5081541;28;43597;-70
2023/05/15 00:06:37;;;;;;;1.00;1.00;;;20.10;70.20;;;;;;5087337;28;43328;-70
2023/05/15 00:09:05;;;;;;;0.90;0.90;;;20.10;70.30;;;;;;5084651;28;43839;-70
2023/05/15 00:11:33;;;;;;;0.90;0.90;;;20.00;70.60;;;;;;5083429;28;43421;-70
2023/05/15 00:14:01;;;;;;;0.90;0.90;;;20.10;70.70;;;;;;5085987;28;45744;-70
2023/05/15 00:16:29;;;;;;;1.00;1.00;;;20.20;70.40;;;;;;5087832;27;43411;-70
2023/05/15 00:18:57;;;;;;;0.83;0.83;;;20.20;70.10;;;;;;5073633;28;43967;-70
2023/05/15 00:21:25;;;;;;;0.90;0.90;;;20.30;70.10;;;;;;5079549;28;43527;-70
2023/05/15 00:23:55;;;;;;;0.80;0.80;;;20.30;70.10;;;;;;5083609;27;43851;-70
2023/05/15 00:26:24;;;;;;;1.10;1.10;;;20.20;70.10;;;;;;5087110;28;44689;-70
2023/05/15 00:28:51;;;;;;;1.10;1.10;;;20.20;70.00;;;;;;5085309;28;43446;-70
2023/05/15 00:31:20;;;;;;;1.00;1.00;;;20.20;70.00;;;;;;5086224;28;43442;-70
2023/05/15 00:33:49;;;;;;;0.80;0.80;;;20.20;69.90;;;;;;5081457;27;45587;-70
2023/05/15 00:36:17;;;;;;;0.90;0.90;;;20.20;70.20;;;;;;5086930;28;45206;-70
2023/05/15 00:38:50;;;;;;;1.00;1.00;;;20.10;70.40;;;;;;5083508;28;43989;-70
2023/05/15 00:41:20;;;;;;;0.90;0.90;;;20.20;70.40;;;;;;5089586;28;43524;-70
2023/05/15 00:43:48;;;;;;;1.10;1.10;;;20.30;70.20;;;;;;5084674;28;45692;-70
2023/05/15 00:46:16;;;;;;;1.00;1.00;;;20.30;70.00;;;;;;5081782;27;43401;-70
2023/05/15 00:48:44;;;;;;;1.10;1.10;;;20.30;69.90;;;;;;5073360;28;43452;-70
2023/05/15 00:51:12;;;;;;;0.97;0.97;;;20.20;70.10;;;;;;5074254;28;43461;-70
2023/05/15 00:53:40;;;;;;;1.10;1.10;;;20.30;70.10;;;;;;5076932;28;43967;-69
2023/05/15 00:56:09;;;;;;;1.00;1.00;;;20.20;70.00;;;;;;5072450;28;43367;-70
2023/05/15 00:58:38;;;;;;;1.00;1.00;;;20.20;70.00;;;;;;5077924;28;43563;-70
2023/05/15 01:01:06;;;;;;;1.00;1.00;;;20.20;70.00;;;;;;5073189;28;43578;-70
2023/05/15 01:03:36;;;;;;;0.80;0.80;;;20.20;70.40;;;;;;5078058;28;45625;-70
2023/05/15 01:06:07;;;;;;;0.90;0.90;;;20.20;70.50;;;;;;5084999;28;44854;-71
2023/05/15 01:08:37;;;;;;;1.23;1.23;;;20.10;70.30;;;;;;5083930;28;43457;-70
2023/05/15 01:11:06;;;;;;;1.00;1.00;;;20.10;70.10;;;;;;5090589;27;43372;-70
2023/05/15 01:13:34;;;;;;;1.10;1.00;;;20.10;70.20;;;;;;5082401;28;45563;-70
2023/05/15 01:16:05;;;;;;;1.03;1.03;;;20.10;70.60;;;;;;5078337;28;45093;-70
2023/05/15 01:18:32;;;;;;;0.90;0.90;;;20.10;70.60;;;;;;5084664;28;43826;-71
2023/05/15 01:21:20;;;;;;;1.10;1.10;;;20.20;70.40;;;;;;5080968;28;43368;-70
2023/05/15 01:23:54;;;;;;;0.90;0.90;;;20.30;70.10;;;;;;5082755;28;46050;-70
2023/05/15 01:26:35;;;;;;;1.00;1.00;;;20.30;69.90;;;;;;5087283;28;43440;-70
2023/05/15 01:29:08;;;;;;;1.10;1.10;;;20.30;70.00;;;;;;5066202;28;43962;-70
2023/05/15 01:31:35;;;;;;;1.07;1.07;;;20.30;70.10;;;;;;5082536;28;43564;-70
2023/05/15 01:34:06;;;;;;;1.00;1.00;;;20.30;70.00;;;;;;5088004;27;44009;-70
2023/05/15 01:36:35;;;;;;;1.07;1.07;;;20.30;70.00;;;;;;5080773;28;43437;-70
2023/05/15 01:39:05;;;;;;;1.00;1.00;;;20.20;69.80;;;;;;5086382;27;43382;-70
2023/05/15 01:41:40;;;;;;;1.00;1.00;;;20.20;70.20;;;;;;5079749;28;43393;-70
2023/05/15 01:44:17;;;;;;;1.10;1.10;;;20.20;70.30;;;;;;5087167;28;43869;-70
2023/05/15 01:46:46;;;;;;;1.00;1.00;;;20.20;70.30;;;;;;5080981;27;44570;-70
2023/05/15 01:49:15;;;;;;;0.90;0.90;;;20.20;70.20;;;;;;5082793;27;43449;-70
2023/05/15 01:51:45;;;;;;;1.03;1.03;;;20.20;70.20;;;;;;5079693;28;43430;-70
2023/05/15 01:54:13;;;;;;;1.03;1.03;;;20.10;70.40;;;;;;5080977;28;44053;-70
2023/05/15 01:56:43;;;;;;;1.07;1.07;;;20.10;70.50;;;;;;5077877;28;44667;-70
2023/05/15 01:59:13;;;;;;;0.90;0.90;;;20.20;70.50;;;;;;5082711;28;43405;-70
2023/05/15 02:01:41;;;;;;;1.10;1.10;;;20.10;70.30;;;;;;5085038;28;43978;-70
2023/05/15 02:04:09;;;;;;;0.97;0.97;;;20.10;70.20;;;;;;5075629;28;43961;-70
2023/05/15 02:06:37;;;;;;;1.00;1.00;;;20.10;70.40;;;;;;5083708;28;44739;-70
2023/05/15 02:09:05;;;;;;;1.10;1.10;;;20.10;70.70;;;;;;5084780;28;43884;-70
2023/05/15 02:11:33;;;;;;;0.97;0.97;;;20.20;70.60;;;;;;5075654;28;44045;-70
2023/05/15 02:14:02;;;;;;;1.00;1.00;;;20.30;70.40;;;;;;5077109;28;45866;-72
2023/05/15 02:16:32;;;;;;;1.00;1.00;;;20.40;69.80;;;;;;5085610;27;43366;-70
2023/05/15 02:19:00;;;;;;;1.00;1.00;;;20.50;69.50;;;;;;5080876;28;43461;-70
2023/05/15 02:21:29;;;;;;;1.00;1.00;;;20.50;69.40;;;;;;5085182;28;43350;-70
2023/05/15 02:23:57;;;;;;;1.20;1.20;;;20.50;69.30;;;;;;5087549;27;44315;-70
2023/05/15 02:26:30;;;;;;;0.90;0.90;;;20.40;69.30;;;;;;5073427;28;44010;-69
2023/05/15 02:29:04;;;;;;;1.10;1.10;;;20.30;69.40;;;;;;5086514;28;43462;-70
2023/05/15 02:31:35;;;;;;;1.00;1.00;;;20.30;70.00;;;;;;5085788;27;43319;-70
2023/05/15 02:34:09;;;;;;;1.00;1.00;;;20.30;70.10;;;;;;5078064;28;43857;-70
2023/05/15 02:36:38;;;;;;;0.90;0.90;;;20.20;70.00;;;;;;5082974;28;43450;-70
2023/05/15 02:39:06;;;;;;;0.90;0.90;;;20.20;69.90;;;;;;5078073;27;43481;-70
2023/05/15 02:41:34;;;;;;;1.10;1.10;;;20.20;70.10;;;;;;5084855;27;43386;-70
2023/05/15 02:44:02;;;;;;;1.03;1.03;;;20.20;70.40;;;;;;5085266;28;43894;-70
2023/05/15 02:46:30;;;;;;;1.07;1.07;;;20.20;70.40;;;;;;5083067;28;44753;-70
2023/05/15 02:49:00;;;;;;;0.90;0.90;;;20.20;70.30;;;;;;5083629;27;43502;-70
2023/05/15 02:51:28;;;;;;;1.00;1.00;;;20.20;70.30;;;;;;5081673;28;43462;-69
2023/05/15 02:53:56;;;;;;;1.10;1.10;;;20.10;70.20;;;;;;5074490;27;43863;-70
2023/05/15 02:56:24;;;;;;;1.20;1.20;;;20.10;70.50;;;;;;5085393;27;43469;-71
2023/05/15 02:58:52;;;;;;;1.00;1.00;;;20.10;70.60;;;;;;5075919;28;43386;-70
2023/05/15 03:01:20;;;;;;;0.90;0.90;;;20.20;70.40;;;;;;5078656;28;43788;-70
2023/05/15 03:03:48;;;;;;;1.00;1.00;;;20.30;70.10;;;;;;5076397;28;46000;-70
2023/05/15 03:06:18;;;;;;;1.20;1.20;;;20.30;69.90;;;;;;5088891;27;44135;-70
2023/05/15 03:08:46;;;;;;;1.00;1.00;;;20.30;69.80;;;;;;5070099;27;43503;-70
2023/05/15 03:11:14;;;;;;;1.20;1.20;;;20.30;70.10;;;;;;5075551;28;43550;-70
2023/05/15 03:13:41;;;;;;;1.10;1.10;;;20.30;70.10;;;;;;5081686;28;45789;-70
2023/05/15 03:16:10;;;;;;;1.10;1.10;;;20.30;70.00;;;;;;5069722;27;44900;-71
2023/05/15 03:18:38;;;;;;;1.00;1.00;;;20.30;69.80;;;;;;5073944;28;43387;-70
2023/05/15 03:21:06;;;;;;;1.20;1.20;;;20.20;69.80;;;;;;5081849;27;43424;-70
2023/05/15 03:23:35;;;;;;;1.00;1.00;;;20.20;70.20;;;;;;5077397;28;45768;-72
2023/05/15 03:26:05;;;;;;;1.10;1.10;;;20.20;70.30;;;;;;5083964;28;44980;-70
2023/05/15 03:28:33;;;;;;;1.10;1.10;;;20.20;70.20;;;;;;5082757;27;43431;-70
2023/05/15 03:31:01;;;;;;;1.13;1.13;;;20.20;70.10;;;;;;5086830;28;43425;-70
2023/05/15 03:33:29;;;;;;;1.10;1.10;;;20.20;70.20;;;;;;5086082;27;43654;-70
2023/05/15 03:35:57;;;;;;;1.10;1.10;;;20.10;70.40;;;;;;5081979;28;44856;-70
2023/05/15 03:38:25;;;;;;;1.07;1.07;;;20.20;70.60;;;;;;5082425;28;43426;-70
2023/05/15 03:40:54;;;;;;;1.10;1.10;;;20.20;70.30;;;;;;5087807;28;43542;-70
2023/05/15 03:43:25;;;;;;;1.20;1.20;;;20.30;69.90;;;;;;5076686;27;43595;-70
2023/05/15 03:45:54;;;;;;;1.00;1.00;;;20.40;69.50;;;;;;5070646;28;43502;-70
2023/05/15 03:48:22;;;;;;;1.07;1.07;;;20.50;69.50;;;;;;5079761;28;43440;-70
2023/05/15 03:50:51;;;;;;;1.20;1.20;;;20.50;69.40;;;;;;5079065;28;43371;-70
2023/05/15 03:53:19;;;;;;;1.00;1.00;;;20.40;69.30;;;;;;5083487;28;45260;-70
2023/05/15 03:55:48;;;;;;;1.23;1.23;;;20.40;69.50;;;;;;5077423;27;43513;-69
2023/05/15 03:58:17;;;;;;;1.00;1.00;;;20.30;70.00;;;;;;5081971;28;43462;-71
2023/05/15 04:00:45;;;;;;;1.23;1.23;;;20.30;70.10;;;;;;5083853;28;43435;-70
2023/05/15 04:03:13;;;;;;;1.10;1.10;;;20.30;70.10;;;;;;5076371;27;45643;-70
2023/05/15 04:05:41;;;;;;;1.30;1.30;;;20.20;69.90;;;;;;5061424;28;43403;-70
2023/05/15 04:08:11;;;;;;;1.10;1.10;;;20.20;70.00;;;;;;5085084;28;43508;-70
2023/05/15 04:10:39;;;;;;;1.37;1.37;;;20.20;70.30;;;;;;5079316;28;43585;-70
2023/05/15 04:13:07;;;;;;;1.30;1.30;;;20.20;70.40;;;;;;5083749;28;43958;-70
2023/05/15 04:15:36;;;;;;;1.30;1.30;;;20.20;70.30;;;;;;5080285;28;43953;-70
2023/05/15 04:18:05;;;;;;;1.40;1.40;;;20.20;70.30;;;;;;5071277;28;43343;-71
2023/05/15 04:20:33;;;;;;;1.60;1.50;;;20.10;70.30;;;;;;5077563;28;43500;-71
2023/05/15 04:23:02;;;;;;;2.00;1.73;;;20.10;70.60;;;;;;5081663;28;45851;-70
2023/05/15 04:25:31;;;;;;;1.40;1.40;;;20.10;70.60;;;;;;5072567;28;44729;-70
2023/05/15 04:27:59;;;;;;;1.80;1.80;;;20.20;70.50;;;;;;5087791;28;43434;-70
2023/05/15 04:30:27;;;;;;;1.63;1.63;;;20.30;70.20;;;;;;5086463;28;43415;-70
2023/05/15 04:32:56;;;;;;;2.00;1.90;;;20.30;70.00;;;;;;5073119;28;43844;-70
2023/05/15 04:35:24;;;;;;;1.70;1.70;;;20.30;69.90;;;;;;5082824;28;45087;-70
2023/05/15 04:37:53;;;;;;;1.80;1.70;;;20.30;70.10;;;;;;5075798;28;43455;-70
2023/05/15 04:40:21;;;;;;;1.53;1.53;;;20.30;70.80;;;;;;5081019;28;43477;-70
2023/05/15 04:42:49;;;;;;;2.00;1.90;;;20.30;70.00;;;;;;5082166;28;43898;-70
2023/05/15 04:45:17;;;;;;;1.70;1.63;;;20.30;69.90;;;;;;5072531;28;43426;-70
2023/05/15 04:47:45;;;;;;;2.17;2.07;;;20.20;70.00;;;;;;5080405;27;43857;-70
2023/05/15 04:50:14;;;;;;;2.13;2.03;;;20.20;70.40;;;;;;5072150;27;43410;-70
2023/05/15 04:52:44;;;;;;;2.00;1.90;;;20.20;70.30;;;;;;5082334;27;43615;-70
2023/05/15 04:55:12;;;;;;;2.17;2.07;;;20.20;70.20;;;;;;5086584;28;43421;-70
2023/05/15 04:57:40;;;;;;;1.73;1.73;;;20.20;70.20;;;;;;5091117;28;44021;-70
2023/05/15 05:00:11;;;;;;;2.10;2.00;;;20.20;70.20;;;;;;5077525;27;43453;-70
2023/05/15 05:02:39;;;;;;;2.50;2.30;;;20.10;70.50;;;;;;5079209;28;43900;-69
2023/05/15 05:05:08;;;;;;;1.80;1.80;;;20.20;70.60;;;;;;5083308;27;43410;-70
2023/05/15 05:07:37;;;;;;;1.90;1.80;;;20.20;70.30;;;;;;5088937;28;43873;-70
2023/05/15 05:10:06;;;;;;;2.23;2.03;;;20.30;70.00;;;;;;5090649;28;43560;-70
2023/05/15 05:12:34;;;;;;;1.80;1.80;;;20.40;69.60;;;;;;5081187;28;43771;-70
2023/05/15 05:15:02;;;;;;;2.10;2.00;;;20.50;69.50;;;;;;5078766;28;45067;-72
2023/05/15 05:17:30;;;;;;;1.80;1.80;;;20.50;69.40;;;;;;5085225;28;43485;-70
2023/05/15 05:19:58;;;;;;;2.23;2.13;;;20.40;69.30;;;;;;5085930;28;43505;-70
2023/05/15 05:22:26;;;;;;;2.00;1.90;;;20.40;69.50;;;;;;5084362;28;43936;-70
2023/05/15 05:24:57;;;;;;;2.40;2.30;;;20.30;69.90;;;;;;5089790;28;43362;-69
2023/05/15 05:27:28;;;;;;;2.40;2.30;;;20.30;70.10;;;;;;5079111;28;44053;-70
2023/05/15 05:29:57;;;;;;;2.03;2.03;;;20.30;70.10;;;;;;5084942;28;43634;-70
2023/05/15 05:32:25;;;;;;;1.70;1.70;;;20.20;70.00;;;;;;5085130;28;44002;-70
2023/05/15 05:34:53;;;;;;;2.10;2.00;;;20.20;70.10;;;;;;5086647;28;45204;-70
2023/05/15 05:37:21;;;;;;;1.73;1.73;;;20.20;70.40;;;;;;5082064;28;43463;-70
2023/05/15 05:39:48;;;;;;;2.23;2.20;;;20.20;70.50;;;;;;5084376;27;43461;-70
2023/05/15 05:42:18;;;;;;;2.10;2.10;;;20.20;70.40;;;;;;5088198;28;45869;-70
2023/05/15 05:44:46;;;;;;;2.43;2.30;;;20.20;70.30;;;;;;5073116;28;44004;-71
2023/05/15 05:47:14;;;;;;;2.10;2.00;;;20.20;70.40;;;;;;5076467;28;43430;-70
2023/05/15 05:49:42;;;;;;;2.13;2.03;;;20.20;70.60;;;;;;5080578;28;43425;-70
2023/05/15 05:52:10;;;;;;;2.30;2.20;;;20.20;70.60;;;;;;5086287;27;43847;-70
2023/05/15 05:54:39;;;;;;;2.27;2.07;;;20.20;71.20;;;;;;5076188;28;43858;-70
2023/05/15 05:57:07;;;;;;;2.27;2.17;;;20.30;70.10;;;;;;5081500;28;43502;-71
2023/05/15 05:59:37;;;;;;;2.20;2.10;;;20.50;69.90;;;;;;5074715;28;43446;-70
2023/05/15 06:02:05;;;;;;;2.00;1.93;;;20.50;69.60;;;;;;5079438;28;43949;-70
2023/05/15 06:04:33;;;;;;;2.27;2.17;;;20.50;69.40;;;;;;5082826;28;45187;-70
2023/05/15 06:07:01;;;;;;;2.07;1.97;;;20.50;69.50;;;;;;5086251;27;43481;-70
2023/05/15 06:09:29;;;;;;;2.30;2.20;;;20.40;69.60;;;;;;5081524;28;43420;-70
2023/05/15 06:11:57;;;;;;;2.40;2.30;;;20.40;70.00;;;;;;5083495;28;43776;-70
2023/05/15 06:14:25;;;;;;;2.10;2.00;;;20.30;70.10;;;;;;5087935;28;44648;-70
2023/05/15 06:16:54;;;;;;;2.20;2.20;;;20.30;70.10;;;;;;5077895;28;43422;-70
2023/05/15 06:19:23;;;;;;;1.90;1.80;;;20.30;70.10;;;;;;5082837;27;43382;-70
2023/05/15 06:21:51;;;;;;;2.40;2.30;;;20.20;70.10;;;;;;5085140;28;46019;-70
2023/05/15 06:24:19;;;;;;;2.20;2.10;;;20.20;70.30;;;;;;5080051;28;45140;-70
2023/05/15 06:26:47;;;;;;;2.20;2.10;;;20.20;70.50;;;;;;5084691;28;43375;-70
2023/05/15 06:29:16;;;;;;;1.80;1.80;;;20.30;70.50;;;;;;5089060;28;43531;-70
2023/05/15 06:31:44;;;;;;;2.00;1.90;;;20.40;70.20;;;;;;5081080;28;43635;-70
2023/05/15 06:34:13;;;;;;;2.17;2.07;;;20.40;70.00;;;;;;5076784;28;44338;-70
2023/05/15 06:36:41;;;;;;;1.97;1.97;;;20.40;69.80;;;;;;5081861;27;43449;-70
2023/05/15 06:39:10;;;;;;;2.60;2.40;;;20.40;70.10;;;;;;5071930;27;43457;-70
2023/05/15 06:41:38;;;;;;;2.60;2.50;;;20.30;70.00;;;;;;5086536;27;43624;-69
2023/05/15 06:44:12;;;;;;;2.20;2.10;;;20.30;69.90;;;;;;5083303;27;44309;-70
2023/05/15 06:46:40;;;;;;;2.00;1.90;;;20.30;69.90;;;;;;5084179;28;43367;-70
2023/05/15 06:49:08;;;;;;;2.33;2.20;;;20.30;70.10;;;;;;5087380;28;43530;-70
2023/05/15 06:51:37;;;;;;;2.10;2.10;;;20.30;70.40;;;;;;5084495;28;43897;-70
2023/05/15 06:54:05;;;;;;;2.00;1.90;;;20.20;70.30;;;;;;5066810;28;45142;-70
2023/05/15 06:56:33;;;;;;;2.13;2.07;;;20.20;70.20;;;;;;5070700;28;43372;-70
2023/05/15 06:59:01;;;;;;;2.20;2.10;;;20.20;70.20;;;;;;5081825;28;43498;-70
2023/05/15 07:01:30;;;;;;;2.23;2.13;;;20.20;70.30;;;;;;5084321;28;45499;-70
2023/05/15 07:03:58;;;;;;;1.80;1.80;;;20.20;70.60;;;;;;5087024;27;43407;-70
2023/05/15 07:06:26;;;;;;;2.10;2.00;;;20.20;70.60;;;;;;5080413;28;43440;-70
2023/05/15 07:08:56;;;;;;;2.07;2.03;;;20.20;70.50;;;;;;5083846;28;43956;-70
2023/05/15 07:11:24;;;;;;;2.43;2.33;;;20.20;70.50;;;;;;5081876;28;43890;-70
2023/05/15 07:13:52;;;;;;;2.20;2.10;;;20.20;70.50;;;;;;5083832;28;43335;-70
2023/05/15 07:16:23;;;;;;;1.87;1.87;;;20.10;70.60;;;;;;5076135;27;43403;-70
2023/05/15 07:18:53;;;;;;;2.43;2.33;;;20.10;70.70;;;;;;5081044;28;43552;-69
2023/05/15 07:21:24;;;;;;;2.20;2.10;;;20.20;70.60;;;;;;5078848;28;46508;-69
2023/05/15 07:23:52;;;;;;;2.10;2.07;;;20.30;70.30;;;;;;5083752;28;44706;-69
2023/05/15 07:26:24;;;;;;;2.00;2.00;;;20.40;69.80;;;;;;5084723;28;43471;-69
2023/05/15 07:29:03;;;;;;;2.13;2.03;;;20.60;70.30;;;;;;5083628;28;43416;-70
2023/05/15 07:31:33;;;;;;;2.50;2.40;;;20.60;69.40;;;;;;5076547;27;43610;-70
2023/05/15 07:34:01;;;;;;;2.10;2.00;;;20.60;69.30;;;;;;5079905;27;43451;-69
2023/05/15 07:36:29;;;;;;;2.30;2.20;;;20.50;69.30;;;;;;5085451;28;43308;-70
2023/05/15 07:38:57;;;;;;;2.07;2.07;;;20.40;69.50;;;;;;5082615;28;43877;-69
2023/05/15 07:41:26;;;;;;;1.83;1.83;;;20.40;70.00;;;;;;5070949;28;43715;-70
2023/05/15 07:43:56;;;;;;;2.03;2.03;;;20.30;69.90;;;;;;5084280;28;44889;-70
2023/05/15 07:46:24;;;;;;;1.90;1.90;;;20.30;69.90;;;;;;5077699;28;43401;-70
2023/05/15 07:48:54;;;;;;;1.80;1.80;;;20.30;70.00;;;;;;5068325;28;43924;-69
2023/05/15 07:51:22;;;;;;;2.03;1.97;;;20.30;70.20;;;;;;5068963;28;44276;-69
2023/05/15 07:53:50;;;;;;;2.00;2.00;;;20.20;70.40;;;;;;5070624;28;43446;-71
2023/05/15 07:56:17;;;;;;;2.10;2.00;;;20.20;70.30;;;;;;5064742;28;43481;-69
2023/05/15 07:58:47;;;;;;;1.90;1.80;;;20.20;70.30;;;;;;5079171;28;43365;-70
2023/05/15 08:01:17;;;;;;;1.80;1.80;;;20.20;70.30;;;;;;5053679;28;45905;-69
2023/05/15 08:03:45;;;;;;;1.90;1.90;;;20.20;70.40;;;;;;5074708;28;43516;-69
2023/05/15 08:06:13;;;;;;;2.03;1.93;;;20.20;70.70;;;;;;5069920;28;43447;-69
2023/05/15 08:08:40;;;;;;;2.20;2.10;;;20.20;70.60;;;;;;5066378;28;44038;-69
2023/05/15 08:11:08;;;;;;;2.00;2.00;;;20.30;70.30;;;;;;5070757;28;46284;-69
2023/05/15 08:13:36;;;;;;;2.10;2.00;;;20.30;70.10;;;;;;5085508;28;43338;-69
2023/05/15 08:16:06;;;;;;;1.70;1.70;;;20.40;70.00;;;;;;5081009;27;43421;-70
2023/05/15 08:18:34;;;;;;;1.90;1.90;;;20.30;70.00;;;;;;5089837;27;43419;-70
2023/05/15 08:21:03;;;;;;;1.70;1.70;;;20.40;70.20;;;;;;5077874;27;43817;-72
2023/05/15 08:23:31;;;;;;;1.93;1.90;;;20.30;70.10;;;;;;5093282;27;43355;-70
2023/05/15 08:25:59;;;;;;;1.90;1.90;;;20.30;70.00;;;;;;5081749;28;43600;-70
2023/05/15 08:28:29;;;;;;;1.70;1.67;;;20.30;70.10;;;;;;5088744;28;43373;-71
2023/05/15 08:30:57;;;;;;;1.83;1.80;;;20.20;70.10;;;;;;5075059;28;44162;-70
2023/05/15 08:33:26;;;;;;;2.17;2.17;;;20.20;70.50;;;;;;5083670;27;44816;-70
2023/05/15 08:35:54;;;;;;;2.07;2.07;;;20.20;70.40;;;;;;5083843;27;43432;-70
2023/05/15 08:38:22;;;;;;;1.80;1.80;;;20.20;70.30;;;;;;5079160;28;43642;-70
2023/05/15 08:40:50;;;;;;;1.77;1.77;;;20.20;70.30;;;;;;5090429;28;44187;-70
2023/05/15 08:43:18;;;;;;;1.90;1.90;;;20.20;70.40;;;;;;5089489;27;43413;-70
2023/05/15 08:45:46;;;;;;;1.80;1.80;;;20.20;70.70;;;;;;5061448;28;43512;-70
2023/05/15 08:48:15;;;;;;;2.10;2.00;;;20.20;70.70;;;;;;5079941;28;43489;-70
2023/05/15 08:50:45;;;;;;;1.63;1.63;;;20.30;70.50;;;;;;5084996;28;43727;-69
2023/05/15 08:53:18;;;;;;;1.87;1.87;;;20.40;70.10;;;;;;5091598;27;43483;-70
2023/05/15 08:55:48;;;;;;;1.73;1.70;;;20.50;69.90;;;;;;5080860;27;43497;-70
2023/05/15 08:58:17;;;;;;;1.67;1.67;;;20.50;69.70;;;;;;5085674;28;43525;-70
2023/05/15 09:00:45;;;;;;;1.73;1.73;;;20.40;69.50;;;;;;5082252;28;46122;-70
2023/05/15 09:03:14;;;;;;;1.90;1.90;;;20.40;69.60;;;;;;5089637;28;44048;-70
2023/05/15 09:05:42;;;;;;;1.90;1.90;;;20.30;69.80;;;;;;5087665;27;43389;-70
2023/05/15 09:08:11;;;;;;;1.70;1.70;;;20.30;70.30;;;;;;5086374;27;43418;-70
2023/05/15 09:10:39;;;;;;;1.63;1.63;;;20.30;70.30;;;;;;5085971;27;45337;-70
2023/05/15 09:13:07;;;;;;;2.00;1.90;;;20.20;70.80;;;;;;5075241;27;43466;-70
2023/05/15 09:15:36;;;;;;;1.70;1.70;;;20.20;70.10;;;;;;5084989;28;44057;-71
2023/05/15 09:18:04;;;;;;;1.60;1.60;;;20.20;70.30;;;;;;5089692;27;43461;-70
2023/05/15 09:20:33;;;;;;;1.80;1.80;;;20.20;70.60;;;;;;5088187;28;43581;-70
2023/05/15 09:23:01;;;;;;;1.60;1.60;;;20.20;70.60;;;;;;5082506;28;45200;-70
2023/05/15 09:25:36;;;;;;;1.70;1.67;;;20.20;70.40;;;;;;5086090;28;43869;-70
2023/05/15 09:28:04;;;;;;;1.80;1.70;;;20.20;70.40;;;;;;5085527;28;44062;-70
2023/05/15 09:30:33;;;;;;;1.90;1.80;;;20.10;70.40;;;;;;5088493;28;46027;-70
2023/05/15 09:33:02;;;;;;;1.70;1.70;;;20.20;70.80;;;;;;5084464;27;45913;-70
2023/05/15 09:35:34;;;;;;;1.70;1.70;;;20.20;70.90;;;;;;5086161;28;43410;-70
2023/05/15 09:38:03;;;;;;;1.83;1.83;;;20.30;70.60;;;;;;5087363;28;43400;-70
2023/05/15 09:40:31;;;;;;;1.90;1.80;;;20.30;70.20;;;;;;5084846;28;43779;-70
2023/05/15 09:43:00;;;;;;;1.83;1.83;;;20.40;69.80;;;;;;5087533;28;43359;-70
2023/05/15 09:45:30;;;;;;;1.77;1.77;;;20.50;69.80;;;;;;5083997;27;43402;-70
2023/05/15 09:48:01;;;;;;;1.73;1.70;;;20.40;69.70;;;;;;5086985;28;43584;-70
2023/05/15 09:50:33;;;;;;;1.93;1.90;;;20.40;69.70;;;;;;5085310;28;43648;-70
2023/05/15 09:53:01;;;;;;;1.77;1.77;;;20.30;69.80;;;;;;5078036;28;43367;-71
2023/05/15 09:55:31;;;;;;;1.70;1.70;;;20.30;70.30;;;;;;5065091;28;43429;-71
2023/05/15 09:58:07;;;;;;;1.70;1.70;;;20.30;70.40;;;;;;5087042;27;43422;-70
2023/05/15 10:00:35;;;;;;;1.83;1.83;;;20.20;70.20;;;;;;5082075;27;45561;-70
2023/05/15 10:03:15;;;;;;;1.70;1.70;;;20.20;70.20;;;;;;5084782;28;43430;-70
2023/05/15 10:05:44;;;;;;;1.80;1.80;;;20.20;70.40;;;;;;5079001;27;43394;-70
2023/05/15 10:08:13;;;;;;;1.67;1.57;;;20.20;70.70;;;;;;5085077;27;43484;-70
2023/05/15 10:10:42;;;;;;;1.60;1.60;;;20.20;70.60;;;;;;5081193;28;46066;-70
2023/05/15 10:13:11;;;;;;;1.67;1.67;;;20.20;70.60;;;;;;5082239;27;44717;-70
2023/05/15 10:15:39;;;;;;;1.87;1.87;;;20.20;70.60;;;;;;5082218;27;43336;-70
2023/05/15 10:18:07;;;;;;;1.70;1.70;;;20.10;70.50;;;;;;5087099;28;43364;-70
2023/05/15 10:20:35;;;;;;;1.73;1.73;;;20.10;70.80;;;;;;5078358;28;44906;-70
2023/05/15 10:23:04;;;;;;;1.70;1.70;;;20.20;70.90;;;;;;5084498;27;44611;-70
2023/05/15 10:25:35;;;;;;;1.63;1.63;;;20.30;70.80;;;;;;5086888;28;43370;-70
2023/05/15 10:28:03;;;;;;;1.70;1.70;;;20.30;70.20;;;;;;5081090;28;44055;-70
2023/05/15 10:30:33;;;;;;;1.60;1.60;;;20.40;69.90;;;;;;5074555;28;45572;-70
2023/05/15 10:33:01;;;;;;;1.70;1.70;;;20.50;69.90;;;;;;5082862;28;45148;-70
2023/05/15 10:35:28;;;;;;;1.80;1.80;;;20.40;69.70;;;;;;5088046;28;43522;-70
2023/05/15 10:37:56;;;;;;;1.50;1.50;;;20.40;69.80;;;;;;5089837;27;43395;-70
2023/05/15 10:40:24;;;;;;;1.60;1.60;;;20.30;70.00;;;;;;5080930;28;46166;-70
2023/05/15 10:42:53;;;;;;;1.80;1.80;;;20.30;70.40;;;;;;5085578;28;43481;-69
2023/05/15 10:45:21;;;;;;;1.60;1.60;;;20.20;70.40;;;;;;5082609;27;43421;-70
2023/05/15 10:47:50;;;;;;;1.60;1.60;;;20.20;70.40;;;;;;5085581;27;43616;-69
2023/05/15 10:50:18;;;;;;;1.80;1.80;;;20.20;70.30;;;;;;5082887;28;45726;-69
2023/05/15 10:52:51;;;;;;;1.77;1.70;;;20.20;70.40;;;;;;5071749;28;43405;-69
2023/05/15 10:55:19;;;;;;;2.00;1.90;;;20.20;70.80;;;;;;5081100;28;43352;-69
2023/05/15 10:57:47;;;;;;;1.60;1.60;;;20.20;70.80;;;;;;5083021;28;43799;-69
2023/05/15 11:00:27;;;;;;;1.80;1.80;;;20.20;70.50;;;;;;5086977;28;43595;-69
2023/05/15 11:02:58;;;;;;;1.70;1.70;;;20.30;70.30;;;;;;5083731;27;43485;-70
2023/05/15 11:05:29;;;;;;;1.80;1.80;;;20.30;70.10;;;;;;5082461;27;43419;-70
2023/05/15 11:08:28;;;;;;;1.80;1.80;;;20.30;70.20;;;;;;5086832;27;43383;-69
2023/05/15 11:10:56;;;;;;;1.60;1.60;;;20.30;70.30;;;;;;5089293;28;44042;-69
2023/05/15 11:13:24;;;;;;;1.67;1.67;;;20.30;70.20;;;;;;5080438;27;43425;-68
2023/05/15 11:15:53;;;;;;;1.43;1.43;;;20.30;70.20;;;;;;5077962;28;43463;-68
2023/05/15 11:18:22;;;;;;;1.50;1.50;;;20.20;70.10;;;;;;5080497;28;43438;-69
2023/05/15 11:21:05;;;;;;;1.67;1.67;;;20.20;70.30;;;;;;5080632;28;43903;-69
2023/05/15 11:23:38;;;;;;;1.80;1.80;;;20.20;70.70;;;;;;5078163;28;43418;-70
2023/05/15 11:26:06;;;;;;;1.60;1.60;;;20.20;70.60;;;;;;5076450;28;43494;-70
2023/05/15 11:28:42;;;;;;;1.80;1.80;;;20.20;70.60;;;;;;5087757;27;44084;-70
2023/05/15 11:31:10;;;;;;;1.50;1.50;;;20.20;70.60;;;;;;5080752;27;44139;-69
2023/05/15 11:33:40;;;;;;;1.53;1.53;;;20.10;70.70;;;;;;5080862;28;44699;-70
2023/05/15 11:36:08;;;;;;;1.40;1.40;;;20.20;70.90;;;;;;5081626;28;43429;-69
2023/05/15 11:38:39;;;;;;;1.60;1.60;;;20.20;70.70;;;;;;5084119;28;43459;-69
2023/05/15 11:41:20;;;;;;;1.77;1.77;;;20.30;70.50;;;;;;5084276;28;44035;-69
2023/05/15 11:43:48;;;;;;;1.53;1.53;;;20.40;70.00;;;;;;5083204;28;43347;-69
2023/05/15 11:46:16;;;;;;;1.60;1.60;;;20.40;69.80;;;;;;5086308;28;43461;-70
2023/05/15 11:48:47;;;;;;;1.60;1.60;;;20.40;69.80;;;;;;5081337;28;43438;-69
2023/05/15 11:51:17;;;;;;;1.60;1.60;;;20.40;69.80;;;;;;5084442;28;43669;-69
2023/05/15 11:53:45;;;;;;;1.77;1.77;;;20.30;70.00;;;;;;5075370;28;43398;-69
2023/05/15 11:56:16;;;;;;;1.50;1.50;;;20.30;70.40;;;;;;5084587;28;43422;-68
2023/05/15 11:58:44;;;;;;;1.80;1.80;;;20.20;70.40;;;;;;5068931;28;43419;-69
2023/05/15 12:01:12;;;;;;;1.57;1.57;;;20.20;70.30;;;;;;5074310;28;43606;-69
2023/05/15 12:03:40;;;;;;;1.50;1.50;;;20.20;70.40;;;;;;5073608;28;43444;-69
2023/05/15 12:06:11;;;;;;;1.60;1.60;;;20.20;70.50;;;;;;5076022;28;43498;-69
2023/05/15 12:08:40;;;;;;;1.60;1.60;;;20.20;70.80;;;;;;5079578;28;43370;-69
2023/05/15 12:11:08;;;;;;;1.73;1.73;;;20.10;70.80;;;;;;5090338;28;43746;-69
2023/05/15 12:13:36;;;;;;;1.63;1.63;;;20.10;70.70;;;;;;5081198;28;43302;-71
2023/05/15 12:16:07;;;;;;;1.60;1.60;;;20.10;70.60;;;;;;5085248;27;43960;-70
2023/05/15 12:18:35;;;;;;;1.63;1.63;;;20.10;70.70;;;;;;5088563;27;43491;-70
2023/05/15 12:21:06;;;;;;;1.63;1.63;;;20.10;70.80;;;;;;5088302;27;43939;-70
2023/05/15 12:23:35;;;;;;;1.50;1.50;;;20.10;71.10;;;;;;5081003;28;45468;-70
2023/05/15 12:26:03;;;;;;;1.50;1.50;;;20.20;70.90;;;;;;5088681;28;43397;-70
2023/05/15 12:28:34;;;;;;;1.60;1.60;;;20.30;70.60;;;;;;5083011;28;43679;-70
2023/05/15 12:31:02;;;;;;;1.67;1.67;;;20.40;70.20;;;;;;5085374;27;43586;-70
2023/05/15 12:33:30;;;;;;;1.77;1.77;;;20.40;69.90;;;;;;5084553;27;44712;-70
2023/05/15 12:35:58;;;;;;;1.70;1.70;;;20.40;69.80;;;;;;5080474;28;43415;-70
2023/05/15 12:38:29;;;;;;;1.73;1.73;;;20.40;69.90;;;;;;5090085;27;43438;-70
2023/05/15 12:40:58;;;;;;;1.70;1.70;;;20.30;69.90;;;;;;5082348;27;43698;-70
2023/05/15 12:43:26;;;;;;;2.00;2.00;;;20.30;70.20;;;;;;5080745;28;44747;-70
2023/05/15 12:45:54;;;;;;;1.70;1.70;;;20.20;70.50;;;;;;5090072;28;43377;-70
2023/05/15 12:48:22;;;;;;;1.90;1.90;;;20.20;70.40;;;;;;5083537;27;43582;-70
2023/05/15 12:50:50;;;;;;;1.57;1.57;;;20.20;70.40;;;;;;5082416;28;43861;-71
2023/05/15 12:53:18;;;;;;;1.77;1.77;;;20.20;70.50;;;;;;5082104;28;43416;-69
2023/05/15 12:55:47;;;;;;;1.80;1.80;;;20.20;70.60;;;;;;5080373;28;43556;-70
2023/05/15 12:58:17;;;;;;;1.77;1.77;;;20.10;70.80;;;;;;5075374;28;43487;-70